Time;durP1;ratioP1;P1;durP2;ratioP2;P2;SDS_P1;SDS_P2;PMS_P1;PMS_P2;Temp;Humidity;BMP_temperature;BMP_pressure;BME280_temperature;BME280_humidity;BME280_pressure;Samples;Min_cycle;Max_cycle;Signal;HPM_P1;HPM_P2
2024/01/17 00:05:13;;;;;;;57.30;24.40;;;;;;;-5.00;100.00;98392.77;272682;1256;22796;-87
2024/01/17 00:12:17;;;;;;;;;;;;;;;-5.16;100.00;98395.51;273004;1268;23813;-88
2024/01/17 00:19:20;;;;;;;60.70;23.80;;;;;;;-5.37;100.00;98390.51;273844;1275;22221;-87
2024/01/17 00:25:43;;;;;;;51.00;22.70;;;;;;;-5.58;100.00;98377.42;270797;1268;22560;-87
2024/01/17 00:31:50;;;;;;;57.10;23.00;;;;;;;-5.74;100.00;98374.05;273620;1276;22253;-87
2024/01/17 00:37:55;;;;;;;50.80;21.00;;;;;;;-5.92;100.00;98366.34;270819;1268;23248;-87
2024/01/17 00:43:58;;;;;;;51.40;20.20;;;;;;;-6.11;100.00;98362.51;270460;1268;22559;-86
2024/01/17 00:50:40;;;;;;;50.00;21.10;;;;;;;-6.37;100.00;98366.02;269978;1268;22556;-86
2024/01/17 00:57:45;;;;;;;48.50;21.70;;;;;;;-6.54;100.00;98367.55;272114;1263;23740;-85
2024/01/17 01:03:47;;;;;;;54.90;21.70;;;;;;;-6.65;100.00;98372.65;270652;1268;24253;-85
2024/01/17 01:10:30;;;;;;;55.10;22.90;;;;;;;-6.83;100.00;98369.50;271405;1268;22227;-86
2024/01/17 01:17:14;;;;;;;58.60;23.10;;;;;;;-7.00;100.00;98367.07;273886;1275;22849;-84
2024/01/17 01:23:57;;;;;;;53.70;22.00;;;;;;;-7.05;100.00;98357.74;270377;1271;22616;-86
2024/01/17 01:30:45;;;;;;;;;;;;;;;;;;;;;
2024/01/17 01:38:00;;;;;;;64.10;26.00;;;;;;;-7.34;100.00;98345.20;273933;1269;22185;-84
2024/01/17 01:44:23;;;;;;;54.40;24.70;;;;;;;-7.43;100.00;98344.52;273687;1276;22211;-86
2024/01/17 01:50:25;;;;;;;61.10;22.90;;;;;;;-7.52;100.00;98340.80;271661;1270;22914;-85
2024/01/17 01:56:30;;;;;;;56.00;23.10;;;;;;;-7.58;100.00;98334.98;270520;1269;22998;-84
2024/01/17 02:03:13;;;;;;;55.00;22.80;;;;;;;-7.66;100.00;98328.76;270881;1268;22214;-85
2024/01/17 02:09:36;;;;;;;53.30;20.70;;;;;;;-7.74;100.00;98321.09;271215;1269;23192;-85
2024/01/17 02:15:39;;;;;;;38.70;16.30;;;;;;;-7.82;100.00;98312.35;270624;1268;22657;-85
2024/01/17 02:21:41;;;;;;;37.40;16.10;;;;;;;-7.96;100.00;98312.99;272389;1268;22211;-86
2024/01/17 02:27:43;;;;;;;44.90;20.80;;;;;;;-8.07;100.00;98314.42;272128;1268;22559;-85
2024/01/17 07:54:26;;;;;;;57.50;23.40;;;;;;;-8.53;100.00;97977.59;272290;1270;23468;-84
2024/01/17 08:00:30;;;;;;;57.20;22.90;;;;;;;-7.74;100.00;97964.17;272440;1276;22556;-85
2024/01/17 08:07:09;;;;;;;63.00;24.90;;;;;;;-7.10;100.00;97957.81;272926;1270;22413;-85
2024/01/17 08:13:51;;;;;;;52.50;20.90;;;;;;;-6.56;100.00;97955.81;272055;1269;22173;-85
2024/01/17 08:20:19;;;;;;;51.60;21.10;;;;;;;-5.96;100.00;97940.01;272662;1276;22214;-86
2024/01/17 08:26:22;;;;;;;63.90;25.50;;;;;;;-5.42;100.00;97928.29;273520;1269;22168;-86
2024/01/17 08:33:05;;;;;;;54.30;23.40;;;;;;;-5.00;100.00;97920.35;273408;1277;22274;-86
2024/01/17 08:39:43;;;;;;;53.40;21.90;;;;;;;-4.44;100.00;97902.42;272630;1270;22573;-86
2024/01/17 08:45:46;;;;;;;52.90;22.30;;;;;;;-3.99;100.00;97893.71;273348;1276;22690;-86
2024/01/17 08:52:38;;;;;;;52.70;22.70;;;;;;;-3.53;100.00;97878.63;270265;1270;22533;-86
2024/01/17 08:59:09;;;;;;;45.40;20.90;;;;;;;-2.83;100.00;97869.32;270143;1269;22516;-87
2024/01/17 09:05:52;;;;;;;47.20;19.60;;;;;;;-2.20;100.00;97851.77;271350;1274;22930;-87
2024/01/17 09:12:06;;;;;;;38.10;17.90;;;;;;;-1.55;100.00;97844.17;272068;1256;22833;-86
2024/01/17 09:18:46;;;;;;;29.90;14.60;;;;;;;-1.01;100.00;97844.27;273458;1270;22222;-87
2024/01/17 09:33:27;;;;;;;20.80;9.30;;;;;;;0.23;100.00;97805.79;272090;1272;22200;-88
2024/01/17 09:47:26;;;;;;;16.60;8.00;;;;;;;1.41;97.44;97768.93;272027;1272;25379;-87
2024/01/17 09:54:13;;;;;;;15.40;7.20;;;;;;;1.61;92.72;97744.58;270392;1273;23647;-86
2024/01/17 10:00:35;;;;;;;13.20;7.00;;;;;;;2.02;91.27;97725.00;270432;1270;22558;-86
2024/01/17 10:06:48;;;;;;;16.10;6.10;;;;;;;2.14;90.24;97710.09;271598;1269;22967;-86
2024/01/17 10:13:46;;;;;;;15.70;7.00;;;;;;;2.44;89.47;97699.45;273516;1272;22195;-86
2024/01/17 10:20:13;;;;;;;;;;;;;;;2.64;87.83;97687.08;273647;1276;23790;-87
2024/01/17 10:42:19;;;;;;;12.50;6.20;;;;;;;2.76;83.55;97645.63;270613;1272;22307;-86
2024/01/17 10:48:36;;;;;;;15.10;6.70;;;;;;;2.29;82.33;97635.45;271230;1260;23019;-86
2024/01/17 10:55:38;;;;;;;18.80;8.20;;;;;;;2.09;80.74;97619.43;272706;1269;22219;-86
2024/01/17 11:03:33;;;;;;;14.20;7.90;;;;;;;2.00;77.98;97590.33;271973;1275;25429;-87
2024/01/17 11:39:44;;;;;;;18.90;8.90;;;;;;;1.78;73.22;97514.36;269377;1280;22247;-87
2024/01/17 11:45:50;;;;;;;16.00;8.30;;;;;;;1.88;73.38;97494.30;271259;1280;22574;-86
2024/01/17 11:53:01;;;;;;;17.30;8.30;;;;;;;1.95;73.27;97480.57;271652;1280;22427;-86
2024/01/17 12:07:23;;;;;;;25.50;18.50;;;;;;;1.98;72.73;97441.99;273053;1276;22226;-86
2024/01/17 12:13:36;;;;;;;18.70;10.30;;;;;;;2.01;73.21;97428.11;272996;1278;23016;-86
2024/01/17 12:27:41;;;;;;;15.00;6.90;;;;;;;2.16;73.49;97398.30;270364;1272;22584;-86
2024/01/17 12:35:06;;;;;;;17.70;7.90;;;;;;;2.26;73.64;97376.89;272947;1271;22206;-86
2024/01/17 12:50:04;;;;;;;21.60;9.00;;;;;;;2.35;74.25;97353.45;272010;1282;22278;-87
2024/01/17 12:56:56;;;;;;;47.00;21.30;;;;;;;2.16;74.96;97341.48;272635;1280;22581;-87
2024/01/17 13:11:15;;;;;;;38.80;18.50;;;;;;;1.72;75.79;97319.84;273244;1276;22236;-87
2024/01/17 13:18:10;;;;;;;38.60;17.00;;;;;;;1.65;75.92;97302.45;273766;1270;22236;-87
2024/01/17 13:25:29;;;;;;;29.00;14.20;;;;;;;1.56;76.16;97278.41;272247;1276;22235;-87
2024/01/17 13:47:37;;;;;;;31.40;14.80;;;;;;;1.49;76.97;97243.05;272996;1269;22230;-88
2024/01/17 13:53:41;;;;;;;30.00;14.40;;;;;;;1.43;77.14;97237.71;273768;1276;22250;-87
2024/01/17 14:15:46;;;;;;;49.80;20.30;;;;;;;0.98;77.94;97212.12;272707;1278;22238;-87
2024/01/17 14:22:12;;;;;;;36.30;15.10;;;;;;;0.94;78.34;97202.66;272589;1281;22253;-87
2024/01/17 14:28:41;;;;;;;31.00;13.30;;;;;;;0.90;78.81;97188.80;273608;1272;23432;-87
2024/01/17 14:35:34;;;;;;;31.80;12.80;;;;;;;0.92;78.72;97175.89;273572;1277;22906;-88
2024/01/17 14:42:31;;;;;;;30.90;13.80;;;;;;;0.95;78.78;97172.27;273576;1277;23535;-88
2024/01/17 15:12:28;;;;;;;31.40;14.30;;;;;;;0.83;80.22;97127.30;273500;1272;22780;-88
2024/01/17 15:26:50;;;;;;;43.80;18.10;;;;;;;0.55;80.72;97094.31;273659;1276;23015;-88
2024/01/17 15:33:42;;;;;;;33.00;16.00;;;;;;;0.49;81.06;97094.95;273644;1276;22213;-88
2024/01/17 15:49:00;;;;;;;39.30;15.80;;;;;;;0.36;81.82;97065.70;270983;1261;22943;-88
2024/01/17 15:56:57;;;;;;;34.20;14.60;;;;;;;0.37;82.04;97051.41;272113;1283;23435;-88
2024/01/17 16:11:08;;;;;;;30.90;14.20;;;;;;;0.29;82.93;97015.44;272361;1278;23526;-86
2024/01/17 16:18:47;;;;;;;30.70;15.30;;;;;;;0.25;83.27;97011.20;269932;1278;25462;-88
2024/01/17 16:25:10;;;;;;;36.20;15.50;;;;;;;0.22;83.70;97004.59;272781;1276;22224;-87
2024/01/17 16:31:27;;;;;;;35.40;15.40;;;;;;;0.18;83.79;96999.67;273445;1268;22201;-87
2024/01/17 16:37:30;;;;;;;36.70;16.20;;;;;;;0.14;84.11;97005.83;273344;1269;22537;-87
2024/01/17 16:44:21;;;;;;;46.70;19.20;;;;;;;0.14;84.34;97011.52;272233;1273;22827;-87
2024/01/17 16:51:13;;;;;;;39.80;17.00;;;;;;;0.12;84.71;97006.10;272789;1254;22364;-86
2024/01/17 16:58:06;;;;;;;32.50;14.80;;;;;;;0.14;85.17;97001.36;271686;1269;23814;-86
2024/01/17 17:12:29;;;;;;;40.40;16.50;;;;;;;0.18;85.87;97007.61;273565;1276;23805;-87
2024/01/17 17:18:31;;;;;;;37.80;15.90;;;;;;;0.17;86.05;97001.89;272229;1269;22566;-86
2024/01/17 17:24:58;;;;;;;57.90;23.40;;;;;;;0.14;85.92;96993.14;273172;1275;22220;-87
2024/01/17 17:31:00;;;;;;;53.80;22.40;;;;;;;0.16;86.24;96980.48;273664;1275;22441;-87
2024/01/17 17:37:58;;;;;;;103.70;46.60;;;;;;;0.17;86.14;96971.20;265925;1271;10138252;-87
2024/01/17 17:45:38;;;;;;;131.90;61.40;;;;;;;0.11;86.65;96951.49;272584;1275;24333;-86
2024/01/17 17:52:30;;;;;;;48.10;24.00;;;;;;;0.09;86.76;96933.77;272063;1275;23687;-86
2024/01/17 17:59:24;;;;;;;49.90;23.70;;;;;;;0.07;87.14;96911.21;272659;1274;22310;-86
2024/01/17 18:13:47;;;;;;;52.40;24.70;;;;;;;-0.12;88.32;96862.39;273526;1277;22236;-86
2024/01/17 18:20:20;;;;;;;68.00;31.50;;;;;;;-0.22;88.56;96859.07;273357;1277;22367;-86
2024/01/17 18:50:04;;;;;;;61.50;26.30;;;;;;;-0.45;90.74;96824.52;272016;1283;22263;-86
2024/01/17 18:56:59;;;;;;;61.70;30.20;;;;;;;-0.46;91.31;96813.27;272548;1277;22124;-85
2024/01/17 19:04:58;;;;;;;78.80;32.80;;;;;;;-0.46;91.59;96815.27;273570;1277;22211;-86
2024/01/17 19:26:46;;;;;;;114.60;51.40;;;;;;;-0.47;92.42;96771.64;273718;1276;22321;-86
2024/01/17 19:32:54;;;;;;;111.40;48.30;;;;;;;-0.45;92.78;96757.25;273541;1272;22307;-86
2024/01/17 19:39:15;;;;;;;100.70;43.90;;;;;;;-0.43;93.02;96746.44;273574;1275;22230;-86
2024/01/17 19:45:43;;;;;;;104.30;46.80;;;;;;;-0.44;93.06;96729.29;273708;1276;22253;-86
2024/01/17 19:52:15;;;;;;;108.30;50.70;;;;;;;-0.48;93.22;96712.96;273372;1277;23305;-87
2024/01/17 20:00:03;;;;;;;126.90;57.50;;;;;;;-0.49;93.37;96694.20;272726;1276;22266;-87
2024/01/17 20:14:47;;;;;;;141.50;66.40;;;;;;;-0.54;93.79;96657.80;272504;1281;22467;-86
2024/01/17 20:21:55;;;;;;;;;;;;;;;;;;;;;
2024/01/17 20:43:50;;;;;;;132.00;65.30;;;;;;;-0.89;94.30;96614.14;273718;1276;22200;-88
2024/01/17 20:50:31;;;;;;;86.60;42.80;;;;;;;-0.89;95.06;96591.27;273690;1273;23144;-87
2024/01/17 20:57:02;;;;;;;109.40;52.00;;;;;;;-0.89;95.61;96585.29;273792;1276;22210;-87
2024/01/17 21:04:04;;;;;;;111.60;52.20;;;;;;;-0.90;96.08;96582.97;273777;1276;22200;-86
2024/01/17 21:11:55;;;;;;;104.20;52.20;;;;;;;-0.86;96.21;96582.35;273480;1275;22389;-88
2024/01/17 21:27:00;;;;;;;103.30;49.90;;;;;;;-0.93;96.04;96530.29;272448;1282;22249;-88
2024/01/17 21:33:51;;;;;;;101.80;47.00;;;;;;;-0.99;96.56;96523.27;272610;1282;22289;-88
2024/01/17 21:47:36;;;;;;;89.90;41.30;;;;;;;-1.10;96.35;96490.48;269968;1282;22526;-88
2024/01/17 22:25:43;;;;;;;84.80;40.10;;;;;;;-1.19;98.25;96447.70;270651;1276;22604;-87
2024/01/17 22:39:31;;;;;;;95.60;46.40;;;;;;;-1.33;98.27;96430.39;271752;1273;22591;-87
2024/01/17 22:53:42;;;;;;;105.50;46.90;;;;;;;-1.29;99.43;96381.84;270654;1270;25440;-87
2024/01/17 23:00:20;;;;;;;113.60;51.90;;;;;;;-1.25;99.40;96386.88;270556;1263;22588;-87
2024/01/17 23:07:42;;;;;;;88.50;41.20;;;;;;;-1.20;99.40;96378.49;273793;1276;22226;-87
2024/01/17 23:13:47;;;;;;;100.30;46.50;;;;;;;-1.08;99.80;96377.83;270973;1276;22602;-87
2024/01/17 23:20:14;;;;;;;115.30;48.50;;;;;;;-1.03;100.00;96367.80;270604;1276;22628;-87
2024/01/17 23:26:41;;;;;;;106.20;48.00;;;;;;;-1.03;100.00;96350.81;270085;1273;22581;-87
2024/01/17 23:32:42;;;;;;;107.20;46.50;;;;;;;-1.07;100.00;96345.02;269838;1274;23459;-87
2024/01/17 23:38:49;;;;;;;111.20;51.70;;;;;;;-1.14;100.00;96351.91;270033;1275;22676;-87
2024/01/17 23:44:51;;;;;;;118.40;55.40;;;;;;;-1.15;100.00;96344.75;270682;1271;22955;-88
2024/01/17 23:50:53;;;;;;;122.10;55.10;;;;;;;-1.11;100.00;96339.45;271235;1270;22327;-86
2024/01/17 23:56:57;;;;;;;128.60;60.90;;;;;;;-1.03;100.00;96334.71;270132;1273;22556;-87
